createdAt,value
2018-07-08T00:00:45.817Z,99.90
2018-07-08T00:03:14.896Z,99.90
2018-07-08T00:05:44.071Z,99.90
2018-07-08T00:10:48.360Z,99.90
2018-07-08T00:13:17.507Z,99.90
2018-07-08T00:15:46.651Z,99.90
2018-07-08T00:18:16.126Z,99.90
2018-07-08T00:20:45.212Z,99.90
2018-07-08T00:25:43.403Z,99.90
2018-07-08T00:28:12.481Z,99.90
2018-07-08T00:30:41.881Z,99.90
2018-07-08T00:33:11.499Z,99.90
2018-07-08T00:35:40.829Z,99.90
2018-07-08T00:38:09.892Z,99.90
2018-07-08T00:40:39.025Z,99.90
2018-07-08T00:43:08.084Z,99.90
2018-07-08T00:45:37.479Z,99.90
2018-07-08T00:48:06.564Z,99.90
2018-07-08T00:50:35.608Z,99.90
2018-07-08T00:53:04.975Z,99.90
2018-07-08T00:55:34.027Z,99.90
2018-07-08T00:58:03.107Z,99.90
2018-07-08T01:00:36.487Z,99.90
2018-07-08T01:03:06.856Z,99.90
2018-07-08T01:05:36.156Z,99.90
2018-07-08T01:08:05.440Z,99.90
2018-07-08T01:13:03.626Z,99.90
2018-07-08T01:15:32.676Z,99.90
2018-07-08T01:18:01.823Z,99.90
2018-07-08T01:20:30.896Z,99.90
2018-07-08T01:23:00.203Z,99.90
2018-07-08T01:25:40.392Z,99.90
2018-07-08T01:28:09.575Z,99.90
2018-07-08T01:30:38.846Z,99.90
2018-07-08T01:33:08.022Z,99.90
2018-07-08T01:35:37.163Z,99.90
2018-07-08T01:38:06.467Z,99.90
2018-07-08T01:43:04.156Z,99.90
2018-07-08T01:45:33.175Z,99.90
2018-07-08T01:48:02.244Z,99.90
2018-07-08T01:50:31.259Z,99.90
2018-07-08T01:53:00.327Z,99.90
2018-07-08T01:55:29.395Z,99.90
2018-07-08T01:57:58.498Z,99.90
2018-07-08T02:00:27.569Z,99.90
2018-07-08T02:02:56.859Z,99.90
2018-07-08T02:05:25.932Z,99.90
2018-07-08T02:07:55.003Z,99.90
2018-07-08T02:10:24.044Z,99.90
2018-07-08T02:12:53.138Z,99.90
2018-07-08T02:15:23.096Z,99.90
2018-07-08T02:17:52.204Z,99.90
2018-07-08T02:20:22.167Z,99.90
2018-07-08T02:22:51.247Z,99.90
2018-07-08T02:25:20.618Z,99.90
2018-07-08T02:27:50.064Z,99.90
2018-07-08T02:30:19.404Z,99.90
2018-07-08T02:32:48.432Z,99.90
2018-07-08T02:35:17.526Z,99.90
2018-07-08T02:37:46.571Z,99.90
2018-07-08T02:40:15.604Z,99.90
2018-07-08T02:42:44.709Z,99.90
2018-07-08T02:45:14.016Z,99.90
2018-07-08T02:47:43.135Z,99.90
2018-07-08T02:50:12.234Z,99.90
2018-07-08T02:52:41.414Z,99.90
2018-07-08T02:55:10.436Z,99.90
2018-07-08T02:57:39.461Z,99.90
2018-07-08T03:00:08.512Z,99.90
2018-07-08T03:02:37.533Z,99.90
2018-07-08T03:05:06.892Z,99.90
2018-07-08T03:07:35.943Z,99.90
2018-07-08T03:10:05.035Z,99.90
2018-07-08T03:12:34.047Z,99.90
2018-07-08T03:15:03.428Z,99.90
2018-07-08T03:17:32.459Z,99.90
2018-07-08T03:20:01.535Z,99.90
2018-07-08T03:22:30.588Z,99.90
2018-07-08T03:24:59.601Z,99.90
2018-07-08T03:27:28.786Z,99.90
2018-07-08T03:29:57.843Z,99.90
2018-07-08T03:32:26.856Z,99.90
2018-07-08T03:34:55.879Z,99.90
2018-07-08T03:37:24.903Z,99.90
2018-07-08T03:39:53.921Z,99.90
2018-07-08T03:42:22.935Z,99.90
2018-07-08T03:44:51.951Z,99.90
2018-07-08T03:47:20.964Z,99.90
2018-07-08T03:49:49.964Z,99.90
2018-07-08T03:54:47.623Z,99.90
2018-07-08T03:57:16.648Z,99.90
2018-07-08T03:59:45.655Z,99.90
2018-07-08T04:02:14.676Z,99.90
2018-07-08T04:04:43.719Z,99.90
2018-07-08T04:07:12.755Z,99.90
2018-07-08T04:09:41.775Z,99.90
2018-07-08T04:12:10.790Z,99.90
2018-07-08T04:14:39.847Z,99.90
2018-07-08T04:17:08.928Z,99.90
2018-07-08T04:19:37.954Z,99.90
2018-07-08T04:22:06.980Z,99.90
2018-07-08T04:24:36.359Z,99.90
2018-07-08T04:27:05.410Z,99.90
2018-07-08T04:29:35.090Z,99.90
2018-07-08T04:32:04.124Z,99.90
2018-07-08T04:34:33.140Z,99.90
2018-07-08T04:37:02.157Z,99.90
2018-07-08T04:39:31.163Z,99.90
2018-07-08T04:42:00.417Z,99.90
2018-07-08T04:44:29.459Z,99.90
2018-07-08T04:46:58.638Z,99.90
2018-07-08T04:49:27.679Z,99.90
2018-07-08T04:51:56.695Z,99.90
2018-07-08T04:54:25.746Z,99.90
2018-07-08T04:56:54.774Z,99.90
2018-07-08T04:59:23.803Z,99.90
2018-07-08T05:01:52.823Z,99.90
2018-07-08T05:04:21.919Z,99.90
2018-07-08T05:06:50.975Z,99.90
2018-07-08T05:09:20.034Z,99.90
2018-07-08T05:11:49.060Z,99.90
2018-07-08T05:14:18.064Z,99.90
2018-07-08T05:16:47.183Z,99.90
2018-07-08T05:19:16.228Z,99.90
2018-07-08T05:21:45.265Z,99.90
2018-07-08T05:24:14.284Z,99.90
2018-07-08T05:26:43.284Z,99.90
2018-07-08T05:29:12.327Z,99.90
2018-07-08T05:31:42.131Z,99.90
2018-07-08T05:34:11.167Z,99.90
2018-07-08T05:36:40.247Z,99.90
2018-07-08T05:39:09.407Z,99.90
2018-07-08T05:41:38.411Z,99.90
2018-07-08T05:44:07.479Z,99.90
2018-07-08T05:46:36.591Z,99.90
2018-07-08T05:49:05.803Z,99.90
2018-07-08T05:51:35.029Z,99.90
2018-07-08T05:54:04.096Z,99.90
2018-07-08T05:56:33.143Z,99.90
2018-07-08T05:59:02.176Z,99.90
2018-07-08T06:01:31.538Z,99.90
2018-07-08T06:04:00.574Z,99.90
2018-07-08T06:06:29.675Z,99.90
2018-07-08T06:08:58.730Z,99.90
2018-07-08T06:11:27.768Z,99.90
2018-07-08T06:13:56.795Z,99.90
2018-07-08T06:16:25.860Z,99.90
2018-07-08T06:18:54.883Z,99.90
2018-07-08T06:21:23.955Z,99.90
2018-07-08T06:23:53.547Z,99.90
2018-07-08T06:26:22.608Z,99.90
2018-07-08T06:28:51.663Z,99.90
2018-07-08T06:31:20.679Z,99.90
2018-07-08T06:33:49.699Z,99.90
2018-07-08T06:36:18.789Z,99.90
2018-07-08T06:38:47.783Z,99.50
2018-07-08T06:41:16.827Z,99.30
2018-07-08T06:43:45.857Z,99.20
2018-07-08T06:46:14.884Z,99.00
2018-07-08T06:48:43.971Z,99.00
2018-07-08T06:51:13.035Z,99.30
2018-07-08T06:53:42.310Z,99.00
2018-07-08T06:58:39.952Z,98.80
2018-07-08T07:01:08.990Z,98.40
2018-07-08T07:03:38.047Z,98.40
2018-07-08T07:06:07.516Z,97.50
2018-07-08T07:08:36.617Z,98.10
2018-07-08T07:11:05.712Z,96.70
2018-07-08T07:13:34.739Z,95.80
2018-07-08T07:16:04.216Z,95.40
2018-07-08T07:18:33.367Z,94.90
2018-07-08T07:21:02.578Z,94.60
2018-07-08T07:23:31.590Z,93.90
2018-07-08T07:26:00.623Z,93.20
2018-07-08T07:28:29.784Z,92.60
2018-07-08T07:30:58.818Z,91.30
2018-07-08T07:33:27.934Z,91.00
2018-07-08T07:35:57.046Z,89.00
2018-07-08T07:40:55.033Z,90.10
2018-07-08T07:43:24.013Z,89.70
2018-07-08T07:45:55.335Z,86.80
2018-07-08T07:48:24.344Z,86.30
2018-07-08T07:50:53.605Z,84.20
2018-07-08T07:53:22.622Z,83.40
2018-07-08T07:55:51.644Z,82.60
2018-07-08T07:58:20.694Z,81.30
2018-07-08T08:00:49.762Z,82.80
2018-07-08T08:03:18.786Z,82.70
2018-07-08T08:05:47.841Z,83.50
2018-07-08T08:08:16.880Z,81.40
2018-07-08T08:10:46.310Z,80.10
2018-07-08T08:13:15.675Z,79.70
2018-07-08T08:15:44.695Z,82.50
2018-07-08T08:18:14.250Z,80.70
2018-07-08T08:25:40.607Z,75.70
2018-07-08T08:28:09.628Z,76.40
2018-07-08T08:30:38.671Z,77.80
2018-07-08T08:38:05.070Z,74.80
2018-07-08T08:40:34.111Z,75.00
2018-07-08T08:43:03.131Z,76.90
2018-07-08T08:45:32.165Z,75.50
2018-07-08T08:48:01.500Z,75.60
2018-07-08T08:50:30.696Z,73.90
2018-07-08T08:52:59.858Z,71.40
2018-07-08T08:57:57.857Z,72.30
2018-07-08T09:00:27.105Z,73.90
2018-07-08T09:05:24.924Z,73.30
2018-07-08T09:07:54.055Z,74.30
2018-07-08T09:10:23.113Z,75.00
2018-07-08T09:12:52.213Z,72.70
2018-07-08T09:15:21.357Z,73.80
2018-07-08T09:17:50.447Z,68.80
2018-07-08T09:20:19.532Z,69.60
2018-07-08T09:22:48.881Z,69.20
2018-07-08T09:27:47.030Z,70.20
2018-07-08T09:30:16.534Z,69.90
2018-07-08T09:32:46.431Z,65.90
2018-07-08T09:35:16.646Z,68.30
2018-07-08T09:37:46.000Z,65.50
2018-07-08T09:40:15.156Z,66.50
2018-07-08T09:42:44.612Z,66.10
2018-07-08T09:45:13.956Z,66.00
2018-07-08T09:47:42.975Z,66.40
2018-07-08T09:52:40.702Z,64.70
2018-07-08T09:55:09.639Z,63.50
2018-07-08T09:57:38.703Z,64.40
2018-07-08T10:00:07.771Z,59.30
2018-07-08T10:02:36.791Z,60.10
2018-07-08T10:05:06.216Z,62.50
2018-07-08T10:12:33.208Z,62.20
2018-07-08T10:15:02.535Z,60.30
2018-07-08T10:17:31.800Z,57.20
2018-07-08T10:20:00.821Z,57.50
2018-07-08T10:22:30.031Z,54.70
2018-07-08T10:24:59.094Z,55.00
2018-07-08T10:28:36.651Z,56.50
2018-07-08T10:31:10.321Z,52.70
2018-07-08T10:33:56.635Z,54.70
2018-07-08T10:36:25.853Z,54.60
2018-07-08T10:38:54.883Z,54.40
2018-07-08T10:41:23.930Z,55.00
2018-07-08T10:43:52.996Z,53.10
2018-07-08T10:46:22.099Z,52.60
2018-07-08T10:48:51.343Z,52.10
2018-07-08T10:51:20.779Z,53.00
2018-07-08T10:53:49.795Z,52.20
2018-07-08T10:56:19.339Z,50.40
2018-07-08T10:58:48.387Z,51.60
2018-07-08T11:01:17.470Z,49.90
2018-07-08T11:03:46.487Z,52.10
2018-07-08T11:06:15.775Z,51.00
2018-07-08T11:08:44.823Z,51.00
2018-07-08T11:11:13.915Z,50.60
2018-07-08T11:13:43.064Z,50.60
2018-07-08T11:16:12.140Z,50.60
2018-07-08T11:18:41.236Z,48.70
2018-07-08T11:21:10.360Z,47.80
2018-07-08T11:23:39.371Z,48.20
2018-07-08T11:26:08.407Z,49.90
2018-07-08T11:28:37.496Z,55.50
2018-07-08T11:31:07.021Z,55.60
2018-07-08T11:33:36.073Z,53.70
2018-07-08T11:36:05.177Z,53.00
2018-07-08T11:38:34.569Z,52.70
2018-07-08T11:41:03.620Z,51.20
2018-07-08T11:46:01.647Z,54.00
2018-07-08T11:48:30.690Z,54.70
2018-07-08T11:50:59.817Z,54.30
2018-07-08T11:55:57.460Z,57.10
2018-07-08T11:58:26.691Z,56.50
2018-07-08T12:00:55.749Z,57.00
2018-07-08T12:03:24.900Z,57.50
2018-07-08T12:05:53.958Z,56.80
2018-07-08T12:08:23.004Z,54.90
2018-07-08T12:10:52.060Z,54.30
2018-07-08T12:15:49.767Z,59.90
2018-07-08T12:18:18.811Z,60.50
2018-07-08T12:23:16.556Z,64.80
2018-07-08T12:25:45.654Z,59.60
2018-07-08T12:28:14.664Z,56.30
2018-07-08T12:30:43.727Z,53.70
2018-07-08T12:33:12.776Z,53.10
2018-07-08T12:35:41.901Z,52.60
2018-07-08T12:38:10.943Z,54.10
2018-07-08T12:40:40.025Z,51.20
2018-07-08T12:43:09.310Z,50.50
2018-07-08T12:48:06.977Z,54.20
2018-07-08T12:50:36.248Z,53.10
2018-07-08T12:55:34.403Z,53.00
2018-07-08T12:58:03.453Z,51.10
2018-07-08T13:00:32.515Z,49.70
2018-07-08T13:05:30.240Z,49.60
2018-07-08T13:07:59.270Z,50.10
2018-07-08T13:10:28.808Z,50.10
2018-07-08T13:12:58.158Z,55.50
2018-07-08T13:15:27.599Z,56.20
2018-07-08T13:17:56.711Z,56.70
2018-07-08T13:20:25.782Z,52.20
2018-07-08T13:22:54.846Z,53.10
2018-07-08T13:25:23.885Z,51.40
2018-07-08T13:27:52.987Z,51.00
2018-07-08T13:30:22.367Z,49.10
2018-07-08T13:32:51.427Z,49.20
2018-07-08T13:35:20.505Z,47.20
2018-07-08T13:37:49.547Z,49.00
2018-07-08T13:40:18.588Z,50.40
2018-07-08T13:42:47.628Z,50.90
2018-07-08T13:45:16.663Z,50.00
2018-07-08T13:47:45.723Z,50.10
2018-07-08T13:52:43.395Z,49.90
2018-07-08T13:55:12.433Z,49.20
2018-07-08T13:57:41.471Z,49.50
2018-07-08T14:00:10.519Z,50.50
2018-07-08T14:05:08.334Z,49.70
2018-07-08T14:07:37.383Z,50.40
2018-07-08T14:10:06.480Z,49.80
2018-07-08T14:12:35.552Z,48.90
2018-07-08T14:15:10.883Z,49.10
2018-07-08T14:17:39.893Z,49.80
2018-07-08T14:20:09.024Z,49.60
2018-07-08T14:22:38.016Z,50.20
2018-07-08T14:25:07.048Z,49.00
2018-07-08T14:27:36.236Z,50.40
2018-07-08T14:30:05.561Z,50.70
2018-07-08T14:35:03.491Z,50.30
2018-07-08T14:37:32.519Z,52.00
2018-07-08T14:42:30.441Z,50.20
2018-07-08T14:49:57.182Z,50.40
2018-07-08T14:54:54.863Z,49.00
2018-07-08T14:57:23.905Z,50.10
2018-07-08T14:59:52.915Z,48.80
2018-07-08T15:02:21.972Z,48.70
2018-07-08T15:04:51.075Z,49.50
2018-07-08T15:09:48.779Z,49.10
2018-07-08T15:12:17.864Z,49.20
2018-07-08T15:17:15.523Z,51.10
2018-07-08T15:19:44.595Z,51.30
2018-07-08T15:22:13.663Z,51.90
2018-07-08T15:24:42.933Z,53.50
2018-07-08T15:27:11.975Z,50.60
2018-07-08T15:29:41.544Z,50.50
2018-07-08T15:32:10.596Z,50.90
2018-07-08T15:34:39.664Z,51.50
2018-07-08T15:37:08.668Z,51.80
2018-07-08T15:39:37.707Z,51.90
2018-07-08T15:44:35.324Z,50.10
2018-07-08T15:47:04.673Z,51.10
2018-07-08T15:49:33.698Z,52.70
2018-07-08T15:54:31.371Z,53.50
2018-07-08T16:01:57.607Z,53.20
2018-07-08T16:04:26.624Z,53.10
2018-07-08T16:06:55.736Z,53.20
2018-07-08T16:09:24.728Z,54.40
2018-07-08T16:11:53.769Z,55.90
2018-07-08T16:14:22.808Z,56.30
2018-07-08T16:16:51.875Z,56.70
2018-07-08T16:19:20.897Z,57.10
2018-07-08T16:21:50.012Z,55.00
2018-07-08T16:24:19.027Z,54.20
2018-07-08T16:26:48.305Z,54.70
2018-07-08T16:29:17.316Z,55.70
2018-07-08T16:31:46.613Z,55.60
2018-07-08T16:34:15.611Z,54.20
2018-07-08T16:36:44.661Z,54.80
2018-07-08T16:39:14.027Z,55.20
2018-07-08T16:41:43.163Z,55.40
2018-07-08T16:44:12.208Z,55.20
2018-07-08T16:46:41.299Z,55.60
2018-07-08T16:49:10.353Z,55.20
2018-07-08T16:51:39.474Z,56.10
2018-07-08T16:56:37.771Z,57.70
2018-07-08T16:59:09.839Z,57.30
2018-07-08T17:01:39.097Z,57.30
2018-07-08T17:04:08.135Z,57.70
2018-07-08T17:06:37.147Z,56.50
2018-07-08T17:09:07.896Z,55.90
2018-07-08T17:11:37.263Z,57.00
2018-07-08T17:14:06.434Z,58.70
2018-07-08T17:16:35.899Z,58.60
2018-07-08T17:19:04.980Z,58.80
2018-07-08T17:21:34.031Z,59.70
2018-07-08T17:24:03.091Z,60.90
2018-07-08T17:26:32.243Z,62.70
2018-07-08T17:29:01.677Z,63.30
2018-07-08T17:33:59.371Z,69.50
2018-07-08T17:41:25.745Z,74.60
2018-07-08T17:46:23.496Z,76.40
2018-07-08T17:48:52.566Z,78.80
2018-07-08T17:51:21.589Z,80.40
2018-07-08T17:53:50.656Z,81.80
2018-07-08T17:56:19.727Z,82.00
2018-07-08T17:58:48.836Z,84.00
2018-07-08T18:01:18.140Z,85.20
2018-07-08T18:03:47.929Z,86.20
2018-07-08T18:06:16.995Z,86.20
2018-07-08T18:08:46.031Z,87.10
2018-07-08T18:11:15.055Z,89.50
2018-07-08T18:13:44.201Z,90.00
2018-07-08T18:16:13.218Z,90.50
2018-07-08T18:18:42.239Z,90.70
2018-07-08T18:23:40.142Z,91.10
2018-07-08T18:26:09.157Z,91.40
2018-07-08T18:28:38.184Z,91.60
2018-07-08T18:31:07.532Z,91.90
2018-07-08T18:36:05.216Z,91.80
2018-07-08T18:38:34.468Z,92.10
2018-07-08T18:41:04.145Z,92.70
2018-07-08T18:46:02.122Z,92.60
2018-07-08T18:48:31.174Z,92.70
2018-07-08T18:55:57.594Z,94.10
2018-07-08T18:58:26.842Z,94.30
2018-07-08T19:00:55.935Z,94.70
2018-07-08T19:03:25.072Z,94.70
2018-07-08T19:08:22.714Z,94.40
2018-07-08T19:10:51.748Z,94.70
2018-07-08T19:13:21.047Z,95.10
2018-07-08T19:15:50.083Z,94.90
2018-07-08T19:18:19.152Z,95.70
2018-07-08T19:20:48.240Z,95.90
2018-07-08T19:23:17.288Z,95.70
2018-07-08T19:25:46.321Z,95.90
2018-07-08T19:28:15.344Z,96.30
2018-07-08T19:30:44.636Z,96.60
2018-07-08T19:33:13.690Z,98.00
2018-07-08T19:35:42.735Z,97.60
2018-07-08T19:38:11.768Z,97.80
2018-07-08T19:40:40.908Z,97.60
2018-07-08T19:43:09.937Z,97.70
2018-07-08T19:45:39.113Z,98.10
2018-07-08T19:48:08.112Z,98.00
2018-07-08T19:50:37.535Z,98.50
2018-07-08T19:53:07.297Z,98.80
2018-07-08T19:55:36.356Z,99.80
2018-07-08T19:58:05.602Z,99.80
2018-07-08T20:00:34.936Z,99.90
2018-07-08T20:03:04.071Z,99.90
2018-07-08T20:05:33.176Z,99.90
2018-07-08T20:08:02.159Z,99.90
2018-07-08T20:10:31.259Z,99.90
2018-07-08T20:15:29.000Z,99.90
2018-07-08T20:17:58.058Z,99.90
2018-07-08T20:20:27.117Z,99.90
2018-07-08T20:22:56.189Z,99.90
2018-07-08T20:25:25.246Z,99.90
2018-07-08T20:27:54.275Z,99.90
2018-07-08T20:30:23.291Z,99.90
2018-07-08T20:32:52.371Z,99.90
2018-07-08T20:35:21.454Z,99.90
2018-07-08T20:37:50.471Z,99.90
2018-07-08T20:40:19.960Z,99.90
2018-07-08T20:42:48.995Z,99.90
2018-07-08T20:45:18.300Z,99.90
2018-07-08T20:47:47.432Z,99.90
2018-07-08T20:50:16.448Z,99.90
2018-07-08T20:52:45.544Z,99.90
2018-07-08T20:55:14.583Z,99.90
2018-07-08T20:57:43.620Z,99.90
2018-07-08T21:00:13.688Z,99.90
2018-07-08T21:02:42.815Z,99.90
2018-07-08T21:05:11.891Z,99.90
2018-07-08T21:07:41.209Z,99.90
2018-07-08T21:10:10.230Z,99.90
2018-07-08T21:12:39.308Z,99.90
2018-07-08T21:15:09.199Z,99.90
2018-07-08T21:17:38.264Z,99.90
2018-07-08T21:20:07.596Z,99.90
2018-07-08T21:22:36.915Z,99.90
2018-07-08T21:25:06.596Z,99.90
2018-07-08T21:27:35.716Z,99.90
2018-07-08T21:30:04.799Z,99.90
2018-07-08T21:32:33.853Z,99.90
2018-07-08T21:35:02.887Z,99.90
2018-07-08T21:40:00.959Z,99.90
2018-07-08T21:42:30.802Z,99.90
2018-07-08T21:44:59.897Z,99.90
2018-07-08T21:47:29.327Z,99.90
2018-07-08T21:52:27.136Z,99.90
2018-07-08T21:54:56.232Z,99.90
2018-07-08T21:57:25.356Z,99.90
2018-07-08T21:59:54.362Z,99.90
2018-07-08T22:02:23.441Z,99.90
2018-07-08T22:04:52.481Z,99.90
2018-07-08T22:08:24.915Z,99.90
2018-07-08T22:10:53.984Z,99.90
2018-07-08T22:13:23.024Z,99.90
2018-07-08T22:15:52.100Z,99.90
2018-07-08T22:18:21.178Z,99.90
2018-07-08T22:23:18.840Z,99.90
2018-07-08T22:25:47.891Z,99.90
2018-07-08T22:28:16.988Z,99.90
2018-07-08T22:30:46.096Z,99.90
2018-07-08T22:33:15.284Z,99.90
2018-07-08T22:35:44.761Z,99.90
2018-07-08T22:38:13.784Z,99.90
2018-07-08T22:40:43.167Z,99.90
2018-07-08T22:43:12.457Z,99.90
2018-07-08T22:45:41.951Z,99.90
2018-07-08T22:48:10.995Z,99.90
2018-07-08T22:50:40.151Z,99.90
2018-07-08T22:58:06.629Z,99.90
2018-07-08T23:00:46.864Z,99.90
2018-07-08T23:04:23.680Z,99.90
2018-07-08T23:06:52.751Z,99.90
2018-07-08T23:09:21.840Z,99.90
2018-07-08T23:11:50.933Z,99.90
2018-07-08T23:14:19.940Z,99.90
2018-07-08T23:16:48.983Z,99.90
2018-07-08T23:19:18.325Z,99.90
2018-07-08T23:21:47.915Z,99.90
2018-07-08T23:24:16.996Z,99.90
2018-07-08T23:26:46.149Z,99.90
2018-07-08T23:29:15.247Z,99.90
2018-07-08T23:31:44.424Z,99.90
2018-07-08T23:34:13.461Z,99.90
2018-07-08T23:36:42.751Z,99.90
2018-07-08T23:39:11.844Z,99.90
2018-07-08T23:41:41.679Z,99.90
2018-07-08T23:44:10.735Z,99.90
2018-07-08T23:46:40.011Z,99.90
2018-07-08T23:49:09.079Z,99.90
2018-07-08T23:51:38.114Z,99.90
2018-07-08T23:54:07.212Z,99.90
2018-07-08T23:56:36.703Z,99.90
2018-07-08T23:59:05.775Z,99.90
